Skip to main content

NOAA/GLERL Met Station at Muskegon, MI

Previous 5 days (top of hour only)
See also Previous 3 Hours (2 minute increments)
Jump down to Data
Switch to [English][Metric]
Zoom: Click and drag, Pan: shift-click and drag, Unzoom: double-click, Unzoom All






Note: Speed = mean wind during 2-minute period at top of hour,
Gust = max wind during 2-minute period at top of hour,
Peak = max wind during entire hour.
• See also 5-day windrose plot


NOAA/GLERL Met Station at Muskegon, MI

Previous 5 days (top of hour only)
See also Previous 3 Hours (2 minute increments)
Jump up to Graphs
Switch to [English][Metric]
                  Wind  Wind  Wind   Air   Dew   Rel     Sta   PAR
                   Spd   Gst   Dir  Temp    Pt   Hum    Pres uE/m2/
YYYY-MM-DD   EDT   kts   kts   deg     F     F     %   in Hg   sec
2020-09-24 00:00 -99.0 -99.0   -99   0.0   0.0   0.0    0.00     0
2020-09-23 04:00   6.2   6.8   249  64.6  62.1  91.6   29.40     2
2020-09-23 03:00   4.5   5.1   230  63.7  61.2  91.6   29.41     2
2020-09-23 02:00   4.5   4.7   203  62.1  60.6  95.0   29.41     2
2020-09-23 01:00   7.6   7.8   230  64.4  61.8  91.0   29.42     2
2020-09-23 00:00   6.0   6.2   183  63.0  60.5  91.5   29.44     2
2020-09-22 23:00   4.9   5.8   192  64.0  61.0  89.8   29.43     2
2020-09-22 22:00   8.4   9.1   216  64.2  61.8  91.8   29.44     2
2020-09-22 21:00   8.9   9.5   211  63.9  62.3  94.7   29.44     2
2020-09-22 20:00  10.1  10.5   200  63.7  62.1  94.5   29.44     3
2020-09-22 19:00   9.3   9.7   204  65.7  61.9  87.5   29.44   253
2020-09-22 18:00   8.2   8.9   194  66.7  61.9  84.3   29.46   889
2020-09-22 17:00  10.3  11.1   193  66.4  61.8  85.0   29.47  1290
2020-09-22 16:00   8.2   8.9   193  68.0  61.0  78.1   29.49  1169
2020-09-22 15:00   9.3   9.9   216  66.9  61.5  82.4   29.51  1704
2020-09-22 14:00  11.3  11.7   203  67.6  61.4  80.0   29.53  1749
2020-09-22 13:00   9.7  11.1   195  65.8  59.9  80.9   29.55  1907
2020-09-22 12:00   5.8   6.4   226  66.9  60.5  79.6   29.57  1610
2020-09-22 11:00   9.3  10.1   218  64.6  60.0  84.9   29.56   701
2020-09-22 10:00   8.6   9.1   235  64.0  59.6  85.2   29.57   392
2020-09-22 09:00   5.4   6.2   241  63.7  60.2  88.3   29.57   328
2020-09-22 08:00   5.6   6.2   225  62.1  58.5  88.1   29.59    60
2020-09-22 07:00   7.4   9.1   182  57.7  52.7  83.2   29.57     2
2020-09-22 06:00  11.5  12.1   202  61.0  55.8  82.7   29.57     2
2020-09-22 05:00  10.1  12.4   184  58.8  50.0  72.1   29.58     2
2020-09-22 04:00   6.0   6.6   132  57.0  47.1  69.1   29.61     2
2020-09-22 03:00   9.7  11.3   186  61.9  51.3  68.0   29.62     2
2020-09-22 02:00  10.7  11.9   182  62.1  48.8  61.5   29.62     2
2020-09-22 01:00  11.9  13.8   182  62.8  47.5  56.9   29.62     2
2020-09-22 00:00   7.6  10.5   169  61.9  45.4  54.4   29.63     2
2020-09-21 23:00   7.4  10.1   167  62.4  46.1  54.8   29.63     2
2020-09-21 22:00   5.6   7.8   143  59.5  50.8  72.4   29.62     2
2020-09-21 21:00   3.5   3.9   133  59.2  50.7  73.2   29.64     2
2020-09-21 20:00   3.5   3.9   181  61.0  50.0  66.8   29.64     3
2020-09-21 19:00   6.2   6.4   175  64.0  52.0  64.6   29.64   196
2020-09-21 18:00   4.1   4.3   212  66.0  54.8  66.7   29.67   889
2020-09-21 17:00   5.8   6.2   218  65.8  53.9  64.9   29.68  1304
2020-09-21 16:00   8.2   8.7   209  66.7  53.7  62.5   29.70  1208
2020-09-21 15:00  10.3  11.3   196  65.3  51.6  60.8   29.73  1600
2020-09-21 14:00   9.9  12.1   186  64.8  51.6  62.0   29.76  1658
2020-09-21 13:00  11.9  13.6   196  63.3  51.7  65.5   29.77  1608
2020-09-21 12:00  14.0  15.2   196  61.5  49.9  65.2   29.80  1476
2020-09-21 11:00  12.1  15.2   183  58.6  47.8  67.0   29.80  1260
2020-09-21 10:00  11.3  13.0   178  55.9  45.7  68.1   29.79   928
2020-09-21 09:00   5.6   8.9   160  52.5  43.5  71.0   29.80   414
2020-09-21 08:00   6.2   9.9   146  49.8  42.5  75.6   29.80    75
2020-09-21 07:00   5.6   7.2   137  50.7  43.0  74.7   29.79     2
2020-09-21 06:00   6.6   8.2   137  52.2  42.0  67.9   29.77     2
2020-09-21 05:00   5.8   7.6   158  53.1  41.3  64.0   29.77     2
2020-09-21 04:00   7.0  11.3   156  53.6  40.8  61.4   29.77     2
2020-09-21 03:00   5.6   8.7   158  54.5  40.0  57.6   29.78     2
2020-09-21 02:00   8.9  13.8   162  55.9  39.0  52.5   29.78     2
2020-09-21 01:00   9.7  12.6   157  57.2  38.1  48.5   29.78     2
2020-09-21 00:00  10.7  15.9   160  58.3  40.3  50.9   29.78     2
2020-09-20 23:00  11.5  17.5   145  59.4  43.2  54.6   29.77     2
2020-09-20 22:00  10.9  13.8   147  60.4  43.8  53.9   29.77     2
2020-09-20 21:00   4.1   5.1   117  57.4  51.9  81.8   29.77     2
2020-09-20 20:00   1.4   1.6   132  60.1  50.4  70.0   29.77     4
2020-09-20 19:00   2.3   2.3   306  64.4  51.4  62.2   29.77   197
2020-09-20 18:00   2.9   3.1   256  64.6  51.4  61.9   29.77  1339
2020-09-20 17:00   5.6   6.0   228  63.7  49.5  59.6   29.77  1576
2020-09-20 16:00   7.0   7.4   231  63.0  48.9  59.8   29.80   994
2020-09-20 15:00   7.4   8.4   239  62.4  47.7  58.2   29.81  1700
2020-09-20 14:00  10.5  10.9   224  62.2  47.1  57.3   29.82  1708
2020-09-20 13:00  11.7  13.4   210  63.3  47.7  56.3   29.84  1694
2020-09-20 12:00   8.4  10.5   188  62.1  46.3  55.9   29.85  1640
2020-09-20 11:00   8.7  10.1   192  58.6  45.8  62.0   29.84  1524
2020-09-20 10:00   4.9   6.8   159  54.0  43.8  68.1   29.84  1372
2020-09-20 09:00   4.3   6.4   140  50.5  41.8  71.7   29.83  1070
2020-09-20 08:00   5.8   8.2   132  46.2  40.5  80.1   29.81   309
2020-09-20 07:00   5.8   7.8   130  45.9  39.9  79.3   29.80     2
2020-09-20 06:00   7.2   9.9   123  46.4  39.2  75.6   29.77     2
2020-09-20 05:00   5.4   8.4   122  47.5  38.4  70.3   29.76     2
2020-09-20 04:00  10.3  12.2   106  48.9  40.0  71.1   29.75     2
2020-09-20 03:00   9.5  11.3   106  49.6  43.8  80.2   29.75     2
2020-09-20 02:00   7.0   8.6   105  50.2  45.6  84.0   29.75     2
2020-09-20 01:00   7.6   8.4    95  50.4  46.4  86.1   29.73     2
2020-09-20 00:00   6.0   7.4   102  51.4  45.4  79.5   29.73     2
2020-09-19 23:00   5.8   6.8   107  52.0  47.7  85.2   29.71     2
2020-09-19 22:00   3.5   3.7   117  52.0  46.5  81.3   29.70     2
2020-09-19 21:00   2.7   3.1   228  57.4  43.0  58.2   29.70     2
2020-09-19 20:00   4.3   5.2   297  57.7  43.1  57.7   29.70     7
2020-09-19 19:00   4.5   5.4   259  58.8  42.4  54.0   29.69   812
2020-09-19 18:00   5.1   5.8   278  59.7  43.4  54.3   29.70  1355
2020-09-19 17:00   5.1   6.2   274  58.5  41.9  53.7   29.70   675
2020-09-19 16:00   7.6   8.6   260  57.9  42.6  56.3   29.72  1066
2020-09-19 15:00   6.6   8.2   225  57.7  41.7  54.8   29.75  1670
2020-09-19 14:00  10.3  11.9   216  58.5  41.1  52.1   29.76  1672
2020-09-19 13:00   9.3  10.1   215  57.7  40.1  51.5   29.78  1657
2020-09-19 12:00  10.7  12.8   192  56.8  36.6  46.3   29.80  1613
2020-09-19 11:00   8.0   9.9   184  55.0  34.8  46.0   29.79  1552
2020-09-19 10:00   8.2  10.1   180  49.6  35.8  58.6   29.79  1450
2020-09-19 09:00   4.5   7.4   144  45.0  34.3  66.0   29.78   430
2020-09-19 08:00   6.2   8.0   125  42.4  34.3  72.7   29.78   378
2020-09-19 07:00   7.4   8.7   113  42.3  34.2  72.7   29.76     2
2020-09-19 06:00   8.7  11.3   112  43.2  34.6  71.5   29.75     2
2020-09-19 05:00   8.2  10.9   115  43.5  36.0  74.5   29.75     2
2020-09-19 04:00   8.9  10.1   112  44.2  36.7  74.6   29.75     2
2020-09-19 03:00   9.1  11.1    99  45.5  37.7  74.0   29.76     2
2020-09-19 02:00   8.0  10.5    83  46.6  36.2  66.9   29.76     2
2020-09-19 01:00   7.8  11.1    86  46.8  36.6  67.4   29.76     2
2020-09-19 00:00   8.0  10.7    75  46.0  35.4  66.1   29.76     2
2020-09-18 23:00  11.7  14.8    47  48.0  35.5  61.6   29.74     2
2020-09-18 22:00  10.7  15.4    42  49.6  36.3  59.8   29.74     2
2020-09-18 21:00  12.8  16.1    33  51.4  37.2  57.9   29.72     2
2020-09-18 20:00  10.9  13.6    22  53.1  37.7  55.5   29.71     8